createdAt,value
2017-08-25T00:01:11.115Z,75.73
2017-08-25T00:03:40.919Z,78.01
2017-08-25T00:06:11.259Z,76.55
2017-08-25T00:08:41.897Z,77.42
2017-08-25T00:11:11.111Z,76.33
2017-08-25T00:13:41.133Z,76.27
2017-08-25T00:16:11.731Z,76.47
2017-08-25T00:18:41.545Z,76.49
2017-08-25T00:21:11.471Z,76.45
2017-08-25T00:23:40.905Z,76.36
2017-08-25T00:26:10.669Z,76.37
2017-08-25T00:28:43.571Z,76.04
2017-08-25T00:31:13.180Z,76.27
2017-08-25T00:33:43.817Z,75.94
2017-08-25T00:36:22.719Z,76.23
2017-08-25T00:38:57.978Z,75.98
2017-08-25T00:41:27.956Z,76.02
2017-08-25T00:43:57.446Z,75.72
2017-08-25T00:46:26.653Z,76.27
2017-08-25T00:48:56.284Z,78.20
2017-08-25T00:51:26.063Z,76.67
2017-08-25T00:53:55.673Z,76.68
2017-08-25T00:56:25.173Z,76.32
2017-08-25T00:58:55.256Z,77.15
2017-08-25T01:01:24.734Z,76.72
2017-08-25T01:03:54.122Z,76.75
2017-08-25T01:06:23.665Z,77.03
2017-08-25T01:08:53.663Z,77.19
2017-08-25T01:11:23.355Z,77.22
2017-08-25T01:13:52.963Z,77.18
2017-08-25T01:16:23.248Z,77.04
2017-08-25T01:18:53.096Z,76.96
2017-08-25T01:21:22.899Z,77.09
2017-08-25T01:23:52.304Z,77.41
2017-08-25T01:26:23.684Z,77.33
2017-08-25T01:28:53.647Z,77.10
2017-08-25T01:31:25.308Z,77.34
2017-08-25T01:33:54.814Z,77.74
2017-08-25T01:36:24.428Z,78.14
2017-08-25T01:38:54.344Z,78.10
2017-08-25T01:41:24.251Z,78.29
2017-08-25T01:43:53.863Z,77.98
2017-08-25T01:46:23.802Z,77.90
2017-08-25T01:48:53.358Z,78.11
2017-08-25T01:51:23.095Z,77.94
2017-08-25T01:53:52.484Z,77.66
2017-08-25T01:56:23.214Z,77.41
2017-08-25T01:58:52.670Z,77.74
2017-08-25T02:01:22.347Z,77.72
2017-08-25T02:03:52.265Z,77.85
2017-08-25T02:06:23.489Z,77.77
2017-08-25T02:08:53.039Z,77.92
2017-08-25T02:11:22.913Z,77.69
2017-08-25T02:13:52.179Z,78.04
2017-08-25T02:16:21.928Z,78.35
2017-08-25T02:18:51.772Z,78.21
2017-08-25T02:21:25.787Z,78.09
2017-08-25T02:23:56.169Z,78.34
2017-08-25T02:26:26.469Z,78.07
2017-08-25T02:28:56.171Z,78.14
2017-08-25T02:31:25.988Z,77.97
2017-08-25T02:33:55.467Z,78.11
2017-08-25T02:36:24.739Z,77.79
2017-08-25T02:38:54.499Z,78.45
2017-08-25T02:41:24.452Z,79.02
2017-08-25T02:43:54.172Z,79.61
2017-08-25T02:46:23.827Z,80.02
2017-08-25T02:48:53.565Z,78.81
2017-08-25T02:51:22.987Z,80.22
2017-08-25T02:53:53.309Z,80.80
2017-08-25T02:56:22.656Z,83.44
2017-08-25T02:58:52.449Z,82.11
2017-08-25T03:01:22.119Z,82.50
2017-08-25T03:03:51.639Z,83.16
2017-08-25T03:06:21.241Z,83.16
2017-08-25T03:08:51.101Z,83.12
2017-08-25T03:11:29.854Z,85.87
2017-08-25T03:13:59.391Z,84.53
2017-08-25T03:16:29.175Z,83.83
2017-08-25T03:18:59.026Z,84.14
2017-08-25T03:21:28.515Z,82.92
2017-08-25T03:23:58.278Z,84.31
2017-08-25T03:26:27.835Z,82.66
2017-08-25T03:28:57.231Z,81.60
2017-08-25T03:31:27.194Z,81.37
2017-08-25T03:33:56.791Z,84.10
2017-08-25T03:36:27.531Z,82.82
2017-08-25T03:38:56.955Z,84.79
2017-08-25T03:41:26.927Z,83.53
2017-08-25T03:43:56.528Z,83.05
2017-08-25T03:46:26.195Z,82.61
2017-08-25T03:48:55.799Z,83.45
2017-08-25T03:51:25.622Z,85.27
2017-08-25T03:53:55.141Z,83.38
2017-08-25T03:56:24.819Z,83.61
2017-08-25T03:58:54.290Z,86.13
2017-08-25T04:01:24.160Z,83.58
2017-08-25T04:03:53.763Z,82.61
2017-08-25T04:06:23.475Z,82.09
2017-08-25T04:08:53.108Z,81.44
2017-08-25T04:11:22.899Z,81.12
2017-08-25T04:13:52.415Z,80.79
2017-08-25T04:16:22.190Z,80.52
2017-08-25T04:18:51.607Z,80.39
2017-08-25T04:21:21.371Z,80.63
2017-08-25T04:23:50.919Z,80.51
2017-08-25T04:26:22.967Z,80.82
2017-08-25T04:28:52.598Z,80.59
2017-08-25T04:31:22.494Z,80.60
2017-08-25T04:33:52.206Z,80.52
2017-08-25T04:36:21.708Z,80.52
2017-08-25T04:38:51.094Z,81.58
2017-08-25T04:41:21.133Z,81.02
2017-08-25T04:43:50.501Z,80.79
2017-08-25T04:46:21.610Z,80.70
2017-08-25T04:48:51.310Z,80.72
2017-08-25T04:51:21.205Z,84.86
2017-08-25T04:53:50.484Z,83.21
2017-08-25T04:56:21.052Z,81.98
2017-08-25T04:58:50.278Z,81.22
2017-08-25T05:01:21.428Z,82.27
2017-08-25T05:03:52.601Z,81.48
2017-08-25T05:06:21.953Z,81.46
2017-08-25T05:08:51.300Z,81.16
2017-08-25T05:11:21.915Z,80.91
2017-08-25T05:13:51.467Z,80.74
2017-08-25T05:16:21.048Z,80.72
2017-08-25T05:18:50.535Z,80.55
2017-08-25T05:21:22.880Z,81.05
2017-08-25T05:23:52.079Z,81.02
2017-08-25T05:26:21.819Z,81.44
2017-08-25T05:28:51.007Z,82.06
2017-08-25T05:31:20.562Z,82.11
2017-08-25T05:33:51.140Z,81.68
2017-08-25T05:36:20.500Z,81.84
2017-08-25T05:38:49.700Z,81.71
2017-08-25T05:41:21.796Z,81.56
2017-08-25T05:43:51.008Z,81.47
2017-08-25T05:46:21.533Z,81.18
2017-08-25T05:48:51.176Z,81.29
2017-08-25T05:51:20.496Z,80.46
2017-08-25T05:53:49.684Z,80.43
2017-08-25T05:56:21.288Z,79.98
2017-08-25T05:58:50.602Z,79.19
2017-08-25T06:01:20.539Z,79.55
2017-08-25T06:03:50.294Z,80.03
2017-08-25T06:06:22.973Z,80.06
2017-08-25T06:08:55.392Z,82.05
2017-08-25T06:11:25.248Z,81.26
2017-08-25T06:13:54.588Z,80.03
2017-08-25T06:16:23.816Z,79.51
2017-08-25T06:18:53.491Z,79.43
2017-08-25T06:21:23.077Z,79.15
2017-08-25T06:23:52.625Z,78.23
2017-08-25T06:26:22.088Z,78.31
2017-08-25T06:28:51.863Z,77.78
2017-08-25T06:31:21.068Z,78.00
2017-08-25T06:33:50.466Z,77.52
2017-08-25T06:36:20.448Z,77.22
2017-08-25T06:38:49.843Z,76.21
2017-08-25T06:41:22.464Z,76.86
2017-08-25T06:43:52.039Z,76.56
2017-08-25T06:46:21.204Z,75.53
2017-08-25T06:48:50.706Z,75.86
2017-08-25T06:51:22.286Z,74.80
2017-08-25T06:53:51.826Z,73.77
2017-08-25T06:56:24.495Z,73.80
2017-08-25T06:58:55.071Z,73.77
2017-08-25T07:01:25.058Z,72.79
2017-08-25T07:03:56.260Z,73.30
2017-08-25T07:06:25.743Z,72.84
2017-08-25T07:08:55.296Z,72.10
2017-08-25T07:11:24.648Z,70.37
2017-08-25T07:13:54.135Z,70.75
2017-08-25T07:16:23.544Z,70.04
2017-08-25T07:18:52.793Z,68.81
2017-08-25T07:21:22.268Z,68.57
2017-08-25T07:23:51.434Z,66.10
2017-08-25T07:26:21.147Z,67.92
2017-08-25T07:28:50.782Z,67.01
2017-08-25T07:31:25.950Z,66.95
2017-08-25T07:33:55.306Z,65.86
2017-08-25T07:36:24.938Z,65.89
2017-08-25T07:38:54.420Z,66.14
2017-08-25T07:41:24.279Z,66.13
2017-08-25T07:43:53.619Z,65.58
2017-08-25T07:46:23.048Z,64.00
2017-08-25T07:48:52.511Z,62.52
2017-08-25T07:51:21.758Z,63.14
2017-08-25T07:53:51.414Z,62.88
2017-08-25T07:56:21.597Z,61.22
2017-08-25T07:58:51.117Z,60.99
2017-08-25T08:01:20.312Z,60.79
2017-08-25T08:03:50.158Z,61.08
2017-08-25T08:06:21.155Z,59.52
2017-08-25T08:08:50.521Z,57.18
2017-08-25T08:11:21.275Z,58.88
2017-08-25T08:13:50.992Z,58.78
2017-08-25T08:16:25.483Z,57.51
2017-08-25T08:18:55.039Z,59.11
2017-08-25T08:21:24.230Z,59.97
2017-08-25T08:23:53.496Z,57.45
2017-08-25T08:26:23.211Z,57.97
2017-08-25T08:28:52.547Z,60.12
2017-08-25T08:31:21.724Z,59.54
2017-08-25T08:33:51.592Z,58.42
2017-08-25T08:36:24.822Z,58.62
2017-08-25T08:38:54.459Z,57.53
2017-08-25T08:41:23.655Z,56.05
2017-08-25T08:43:52.865Z,57.77
2017-08-25T08:46:22.319Z,56.43
2017-08-25T08:48:51.471Z,54.98
2017-08-25T08:51:20.702Z,59.65
2017-08-25T08:53:50.275Z,61.65
2017-08-25T08:56:21.300Z,57.86
2017-08-25T08:58:50.567Z,54.71
2017-08-25T09:01:22.213Z,55.71
2017-08-25T09:03:51.471Z,51.73
2017-08-25T09:06:24.925Z,52.69
2017-08-25T09:08:54.647Z,52.21
2017-08-25T09:11:23.905Z,50.96
2017-08-25T09:13:53.122Z,52.54
2017-08-25T09:16:22.674Z,53.71
2017-08-25T09:18:51.855Z,50.77
2017-08-25T09:21:21.084Z,52.45
2017-08-25T09:23:50.561Z,55.22
2017-08-25T09:26:26.009Z,55.44
2017-08-25T09:28:55.318Z,54.75
2017-08-25T09:31:24.804Z,52.57
2017-08-25T09:33:54.031Z,49.95
2017-08-25T09:36:23.240Z,49.74
2017-08-25T09:38:52.727Z,52.38
2017-08-25T09:41:22.303Z,51.02
2017-08-25T09:43:51.468Z,53.13
2017-08-25T09:46:23.376Z,51.26
2017-08-25T09:48:52.707Z,51.22
2017-08-25T09:51:23.036Z,51.20
2017-08-25T09:53:52.577Z,50.33
2017-08-25T09:56:22.215Z,54.59
2017-08-25T09:58:51.550Z,54.80
2017-08-25T10:01:22.015Z,53.97
2017-08-25T10:03:51.325Z,52.68
2017-08-25T10:06:21.270Z,52.93
2017-08-25T10:08:51.011Z,53.99
2017-08-25T10:11:21.032Z,53.61
2017-08-25T10:13:50.227Z,54.86
2017-08-25T10:16:21.399Z,56.30
2017-08-25T10:18:50.648Z,54.26
2017-08-25T10:21:21.000Z,53.50
2017-08-25T10:23:50.608Z,54.97
2017-08-25T10:26:20.748Z,53.62
2017-08-25T10:28:49.945Z,53.30
2017-08-25T10:31:25.415Z,55.27
2017-08-25T10:33:55.002Z,48.91
2017-08-25T10:40:44.119Z,53.33
2017-08-25T10:45:21.099Z,49.89
2017-08-25T10:47:50.378Z,53.03
2017-08-25T10:50:23.464Z,53.70
2017-08-25T10:52:52.773Z,52.04
2017-08-25T10:55:22.019Z,49.74
2017-08-25T10:57:51.475Z,51.87
2017-08-25T11:00:20.703Z,49.59
2017-08-25T11:02:49.980Z,51.13
2017-08-25T11:05:21.127Z,51.11
2017-08-25T11:07:50.560Z,47.69
2017-08-25T11:10:21.492Z,45.35
2017-08-25T11:12:51.079Z,49.40
2017-08-25T11:15:20.993Z,49.30
2017-08-25T11:17:52.787Z,48.21
2017-08-25T11:20:22.252Z,49.51
2017-08-25T11:22:51.604Z,50.33
2017-08-25T11:25:22.255Z,46.95
2017-08-25T11:27:51.835Z,45.90
2017-08-25T11:30:21.364Z,44.89
2017-08-25T11:32:50.787Z,49.15
2017-08-25T11:35:21.049Z,51.60
2017-08-25T11:37:50.324Z,47.84
2017-08-25T11:40:20.621Z,45.54
2017-08-25T11:42:50.184Z,43.70
2017-08-25T11:45:21.155Z,47.37
2017-08-25T11:47:50.428Z,48.55
2017-08-25T11:50:21.668Z,44.29
2017-08-25T11:52:52.129Z,46.85
2017-08-25T11:55:21.343Z,48.61
2017-08-25T11:57:51.370Z,51.75
2017-08-25T12:00:21.235Z,47.97
2017-08-25T12:02:50.531Z,49.07
2017-08-25T12:05:21.494Z,48.54
2017-08-25T12:07:50.819Z,43.82
2017-08-25T12:10:21.244Z,46.63
2017-08-25T12:12:50.815Z,50.97
2017-08-25T12:15:20.648Z,47.17
2017-08-25T12:17:49.976Z,50.77
2017-08-25T12:20:22.663Z,48.64
2017-08-25T12:22:51.922Z,49.80
2017-08-25T12:25:21.779Z,49.27
2017-08-25T12:27:51.316Z,48.89
2017-08-25T12:30:20.569Z,48.32
2017-08-25T12:32:49.859Z,50.00
2017-08-25T12:35:19.708Z,49.41
2017-08-25T12:37:49.023Z,48.90
2017-08-25T12:40:19.510Z,51.16
2017-08-25T12:42:49.004Z,51.63
2017-08-25T12:45:19.798Z,49.08
2017-08-25T12:50:22.543Z,45.47
2017-08-25T12:52:51.708Z,47.80
2017-08-25T12:55:21.325Z,46.58
2017-08-25T12:57:51.610Z,49.37
2017-08-25T13:00:21.827Z,49.14
2017-08-25T13:02:51.032Z,50.69
2017-08-25T13:05:20.628Z,48.79
2017-08-25T13:07:49.907Z,50.23
2017-08-25T13:10:20.991Z,48.14
2017-08-25T13:12:50.448Z,48.62
2017-08-25T13:15:21.122Z,47.27
2017-08-25T13:17:50.318Z,46.14
2017-08-25T13:20:21.119Z,47.00
2017-08-25T13:22:50.315Z,47.81
2017-08-25T13:25:22.605Z,46.04
2017-08-25T13:27:52.122Z,43.93
2017-08-25T13:30:21.466Z,44.08
2017-08-25T13:32:50.618Z,43.44
2017-08-25T13:35:21.998Z,43.94
2017-08-25T13:37:51.164Z,47.17
2017-08-25T13:40:22.329Z,47.79
2017-08-25T13:42:51.767Z,48.15
2017-08-25T13:45:21.037Z,48.41
2017-08-25T13:47:50.283Z,48.67
2017-08-25T13:50:21.197Z,48.78
2017-08-25T13:52:50.522Z,48.81
2017-08-25T13:55:19.715Z,47.05
2017-08-25T13:57:49.171Z,47.88
2017-08-25T14:00:18.428Z,48.11
2017-08-25T14:02:47.610Z,47.35
2017-08-25T14:05:17.095Z,47.81
2017-08-25T14:07:46.255Z,46.04
2017-08-25T14:10:15.639Z,47.50
2017-08-25T14:12:45.087Z,47.39
2017-08-25T14:15:14.307Z,46.89
2017-08-25T14:17:43.508Z,46.60
2017-08-25T14:20:13.075Z,46.71
2017-08-25T14:22:42.303Z,47.66
2017-08-25T14:25:11.807Z,47.46
2017-08-25T14:27:41.379Z,46.69
2017-08-25T14:30:11.555Z,48.66
2017-08-25T14:32:41.970Z,48.11
2017-08-25T14:35:11.520Z,44.92
2017-08-25T14:37:40.773Z,43.13
2017-08-25T14:40:10.691Z,46.40
2017-08-25T14:42:40.657Z,47.39
2017-08-25T14:45:09.922Z,47.82
2017-08-25T14:47:39.357Z,45.77
2017-08-25T14:50:10.232Z,46.63
2017-08-25T14:52:39.538Z,47.86
2017-08-25T14:55:08.899Z,47.28
2017-08-25T14:57:38.507Z,46.59
2017-08-25T15:00:08.376Z,48.52
2017-08-25T15:02:37.549Z,46.23
2017-08-25T15:05:07.143Z,47.34
2017-08-25T15:07:36.472Z,47.38
2017-08-25T15:10:06.084Z,49.46
2017-08-25T15:12:35.623Z,46.76
2017-08-25T15:15:05.081Z,46.74
2017-08-25T15:17:34.276Z,47.57
2017-08-25T15:20:05.216Z,47.92
2017-08-25T15:22:34.386Z,47.15
2017-08-25T15:25:03.679Z,47.96
2017-08-25T15:27:33.202Z,48.44
2017-08-25T15:30:02.535Z,46.76
2017-08-25T15:32:31.790Z,47.45
2017-08-25T15:35:01.397Z,48.58
2017-08-25T15:37:30.621Z,47.72
2017-08-25T15:39:59.965Z,47.83
2017-08-25T15:42:29.454Z,47.27
2017-08-25T15:44:58.677Z,47.26
2017-08-25T15:47:27.928Z,48.73
2017-08-25T15:49:57.764Z,48.40
2017-08-25T15:52:27.043Z,47.98
2017-08-25T15:54:56.251Z,48.36
2017-08-25T15:57:25.839Z,47.99
2017-08-25T15:59:55.098Z,48.57
2017-08-25T16:02:24.372Z,47.62
2017-08-25T16:04:53.882Z,48.15
2017-08-25T16:07:23.083Z,48.30
2017-08-25T16:09:52.461Z,48.32
2017-08-25T16:12:21.995Z,47.43
2017-08-25T16:14:51.268Z,48.03
2017-08-25T16:17:22.227Z,47.26
2017-08-25T16:19:51.905Z,48.74
2017-08-25T16:22:21.936Z,48.00
2017-08-25T16:24:51.244Z,47.82
2017-08-25T16:27:20.715Z,49.29
2017-08-25T16:29:49.890Z,49.65
2017-08-25T16:32:20.702Z,48.88
2017-08-25T16:34:50.210Z,48.42
2017-08-25T16:37:19.400Z,49.14
2017-08-25T16:39:48.611Z,48.50
2017-08-25T16:42:19.171Z,48.83
2017-08-25T16:44:48.370Z,48.78
2017-08-25T16:47:17.677Z,48.46
2017-08-25T16:49:47.248Z,47.94
2017-08-25T16:52:19.770Z,48.24
2017-08-25T16:54:49.000Z,49.82
2017-08-25T16:57:19.844Z,49.81
2017-08-25T16:59:49.040Z,48.65
2017-08-25T17:02:20.607Z,48.70
2017-08-25T17:04:51.174Z,49.18
2017-08-25T17:07:22.068Z,49.57
2017-08-25T17:09:51.282Z,49.36
2017-08-25T17:12:21.812Z,49.29
2017-08-25T17:14:51.960Z,50.61
2017-08-25T17:17:22.677Z,49.96
2017-08-25T17:19:51.931Z,49.58
2017-08-25T17:22:23.937Z,49.36
2017-08-25T17:24:53.434Z,49.65
2017-08-25T17:27:22.656Z,49.74
2017-08-25T17:29:51.922Z,49.77
2017-08-25T17:32:22.140Z,50.34
2017-08-25T17:34:51.413Z,49.54
2017-08-25T17:37:21.812Z,50.36
2017-08-25T17:39:51.343Z,50.21
2017-08-25T17:42:22.039Z,50.32
2017-08-25T17:44:51.204Z,50.71
2017-08-25T17:47:24.770Z,50.59
2017-08-25T17:49:53.999Z,51.51
2017-08-25T17:52:23.415Z,51.85
2017-08-25T17:54:52.971Z,51.85
2017-08-25T17:57:22.619Z,52.20
2017-08-25T17:59:51.877Z,52.45
2017-08-25T18:02:22.304Z,53.41
2017-08-25T18:04:51.489Z,54.39
2017-08-25T18:07:20.652Z,55.13
2017-08-25T18:09:51.255Z,55.83
2017-08-25T18:12:22.371Z,56.05
2017-08-25T18:14:51.680Z,57.22
2017-08-25T18:17:21.209Z,57.32
2017-08-25T18:19:50.566Z,57.24
2017-08-25T18:22:19.766Z,57.04
2017-08-25T18:24:49.348Z,58.44
2017-08-25T18:27:18.579Z,59.46
2017-08-25T18:29:49.514Z,59.87
2017-08-25T18:32:19.011Z,59.13
2017-08-25T18:34:48.367Z,60.17
2017-08-25T18:37:17.544Z,60.44
2017-08-25T18:39:47.155Z,60.53
2017-08-25T18:42:17.149Z,60.23
2017-08-25T18:44:46.460Z,60.70
2017-08-25T18:47:16.341Z,60.87
2017-08-25T18:49:45.985Z,60.80
2017-08-25T18:52:15.341Z,61.43
2017-08-25T18:54:44.947Z,61.92
2017-08-25T18:57:14.180Z,61.65
2017-08-25T18:59:43.529Z,60.31
2017-08-25T19:02:13.099Z,61.32
2017-08-25T19:04:42.620Z,61.52
2017-08-25T19:07:12.111Z,61.23
2017-08-25T19:09:41.683Z,61.34
2017-08-25T19:12:11.040Z,62.84
2017-08-25T19:14:40.349Z,62.25
2017-08-25T19:17:09.928Z,61.25
2017-08-25T19:19:39.137Z,62.25
2017-08-25T19:22:08.474Z,61.90
2017-08-25T19:24:38.023Z,61.67
2017-08-25T19:27:07.419Z,62.25
2017-08-25T19:29:36.619Z,62.46
2017-08-25T19:32:07.480Z,63.54
2017-08-25T19:34:37.439Z,63.37
2017-08-25T19:37:06.821Z,62.73
2017-08-25T19:39:36.339Z,62.17
2017-08-25T19:42:05.749Z,62.56
2017-08-25T19:44:35.093Z,61.78
2017-08-25T19:47:04.798Z,61.12
2017-08-25T19:49:35.755Z,59.82
2017-08-25T19:52:05.142Z,59.24
2017-08-25T19:54:34.703Z,58.95
2017-08-25T19:57:04.075Z,60.66
2017-08-25T19:59:33.326Z,73.86
2017-08-25T20:02:03.166Z,70.68
2017-08-25T20:04:32.527Z,75.40
2017-08-25T20:07:02.048Z,75.95
2017-08-25T20:09:31.712Z,77.49
2017-08-25T20:12:01.131Z,76.76
2017-08-25T20:14:30.360Z,76.34
2017-08-25T20:17:00.327Z,74.33
2017-08-25T20:19:29.699Z,72.88
2017-08-25T20:22:01.753Z,72.74
2017-08-25T20:24:31.234Z,79.25
2017-08-25T20:27:02.504Z,76.24
2017-08-25T20:29:34.330Z,75.29
2017-08-25T20:32:04.179Z,81.42
2017-08-25T20:34:33.377Z,78.59
2017-08-25T20:37:03.368Z,79.55
2017-08-25T20:39:33.063Z,85.62
2017-08-25T20:42:02.560Z,87.36
2017-08-25T20:44:32.058Z,85.73
2017-08-25T20:47:01.680Z,82.01
2017-08-25T20:49:31.003Z,81.16
2017-08-25T20:52:00.683Z,80.19
2017-08-25T20:54:30.186Z,79.10
2017-08-25T20:56:59.469Z,80.59
2017-08-25T20:59:28.751Z,80.50
2017-08-25T21:01:58.411Z,80.70
2017-08-25T21:04:27.664Z,80.73
2017-08-25T21:06:57.115Z,83.41
2017-08-25T21:09:26.883Z,82.68
2017-08-25T21:11:56.289Z,82.19
2017-08-25T21:14:28.162Z,85.84
2017-08-25T21:16:58.777Z,86.65
2017-08-25T21:19:28.143Z,88.36
2017-08-25T21:21:57.453Z,83.74
2017-08-25T21:24:27.083Z,84.01
2017-08-25T21:26:56.303Z,85.40
2017-08-25T21:29:25.913Z,90.04
2017-08-25T21:31:55.655Z,88.79
2017-08-25T21:34:24.935Z,88.48
2017-08-25T21:36:54.319Z,92.98
2017-08-25T21:39:24.026Z,88.35
2017-08-25T21:41:53.365Z,90.03
2017-08-25T21:44:23.821Z,91.23
2017-08-25T21:46:53.532Z,91.06
2017-08-25T21:49:22.814Z,88.26
2017-08-25T21:51:52.081Z,88.01
2017-08-25T21:54:21.802Z,88.36
2017-08-25T21:56:51.307Z,88.01
2017-08-25T21:59:20.879Z,90.09
2017-08-25T22:01:51.483Z,91.43
2017-08-25T22:04:21.225Z,88.17
2017-08-25T22:06:52.187Z,86.90
2017-08-25T22:09:21.835Z,86.66
2017-08-25T22:11:51.448Z,88.53
2017-08-25T22:14:20.747Z,86.60
2017-08-25T22:16:50.503Z,89.31
2017-08-25T22:19:20.203Z,91.34
2017-08-25T22:21:49.668Z,90.33
2017-08-25T22:24:19.249Z,92.39
2017-08-25T22:26:48.524Z,92.11
2017-08-25T22:29:17.729Z,93.31
2017-08-25T22:31:47.376Z,92.65
2017-08-25T22:34:17.783Z,90.20
2017-08-25T22:36:47.178Z,86.55
2017-08-25T22:39:16.904Z,92.92
2017-08-25T22:41:46.220Z,93.23
2017-08-25T22:44:15.390Z,92.78
2017-08-25T22:46:45.133Z,88.75
2017-08-25T22:49:15.259Z,87.78
2017-08-25T22:51:44.738Z,91.96
2017-08-25T22:54:14.449Z,93.14
2017-08-25T22:56:43.645Z,89.25
2017-08-25T22:59:13.262Z,88.67
2017-08-25T23:01:43.035Z,90.33
2017-08-25T23:04:12.315Z,88.38
2017-08-25T23:06:41.465Z,86.97
2017-08-25T23:09:10.987Z,87.27
2017-08-25T23:11:40.214Z,86.69
2017-08-25T23:14:09.553Z,91.46
2017-08-25T23:16:39.332Z,86.90
2017-08-25T23:19:08.520Z,86.13
2017-08-25T23:21:38.034Z,86.17
2017-08-25T23:24:07.709Z,84.48
2017-08-25T23:26:36.981Z,85.91
2017-08-25T23:29:06.180Z,90.83
2017-08-25T23:31:35.762Z,94.12
2017-08-25T23:34:04.999Z,94.12
2017-08-25T23:36:34.287Z,94.41
2017-08-25T23:39:04.251Z,93.47
2017-08-25T23:41:33.795Z,89.78
2017-08-25T23:44:03.285Z,88.85
2017-08-25T23:46:32.859Z,87.89
2017-08-25T23:49:02.268Z,87.89
2017-08-25T23:51:31.562Z,87.25
2017-08-25T23:54:01.290Z,86.41
2017-08-25T23:56:30.775Z,87.00
2017-08-25T23:58:59.975Z,91.37
